sensor_id;sensor_type;location;lat;lon;timestamp;P1;durP1;ratioP1;P2;durP2;ratioP2
70850;SDS011;58475;49.662;9.636;2022-11-20T00:01:18;33.97;;;14.98;;
70850;SDS011;58475;49.662;9.636;2022-11-20T00:03:45;30.15;;;14.32;;
70850;SDS011;58475;49.662;9.636;2022-11-20T00:06:12;33.47;;;15.07;;
70850;SDS011;58475;49.662;9.636;2022-11-20T00:08:39;30.70;;;15.30;;
70850;SDS011;58475;49.662;9.636;2022-11-20T00:11:09;32.28;;;14.65;;
70850;SDS011;58475;49.662;9.636;2022-11-20T00:13:37;30.95;;;13.82;;
70850;SDS011;58475;49.662;9.636;2022-11-20T00:16:04;36.17;;;17.67;;
70850;SDS011;58475;49.662;9.636;2022-11-20T00:18:32;33.80;;;15.77;;
70850;SDS011;58475;49.662;9.636;2022-11-20T00:21:05;35.00;;;15.15;;
70850;SDS011;58475;49.662;9.636;2022-11-20T00:23:32;38.17;;;17.70;;
70850;SDS011;58475;49.662;9.636;2022-11-20T00:26:05;41.53;;;18.98;;
70850;SDS011;58475;49.662;9.636;2022-11-20T00:28:32;36.92;;;16.77;;
70850;SDS011;58475;49.662;9.636;2022-11-20T00:31:05;30.05;;;13.32;;
70850;SDS011;58475;49.662;9.636;2022-11-20T00:33:33;31.77;;;14.88;;
70850;SDS011;58475;49.662;9.636;2022-11-20T00:35:59;35.72;;;16.27;;
70850;SDS011;58475;49.662;9.636;2022-11-20T00:38:29;34.72;;;14.43;;
70850;SDS011;58475;49.662;9.636;2022-11-20T00:40:56;32.95;;;14.55;;
70850;SDS011;58475;49.662;9.636;2022-11-20T00:43:22;31.25;;;13.73;;
70850;SDS011;58475;49.662;9.636;2022-11-20T00:45:48;32.53;;;14.93;;
70850;SDS011;58475;49.662;9.636;2022-11-20T00:48:13;31.48;;;14.00;;
70850;SDS011;58475;49.662;9.636;2022-11-20T00:50:39;31.23;;;14.07;;
70850;SDS011;58475;49.662;9.636;2022-11-20T00:53:06;32.60;;;13.80;;
70850;SDS011;58475;49.662;9.636;2022-11-20T00:55:32;32.13;;;14.27;;
70850;SDS011;58475;49.662;9.636;2022-11-20T00:57:57;32.10;;;14.63;;
70850;SDS011;58475;49.662;9.636;2022-11-20T01:00:23;32.42;;;15.07;;
70850;SDS011;58475;49.662;9.636;2022-11-20T01:02:48;33.78;;;14.05;;
70850;SDS011;58475;49.662;9.636;2022-11-20T01:05:14;33.22;;;15.10;;
70850;SDS011;58475;49.662;9.636;2022-11-20T01:07:39;36.80;;;14.80;;
70850;SDS011;58475;49.662;9.636;2022-11-20T01:10:05;27.80;;;13.52;;
70850;SDS011;58475;49.662;9.636;2022-11-20T01:12:31;31.33;;;13.55;;
70850;SDS011;58475;49.662;9.636;2022-11-20T01:14:56;32.00;;;14.75;;
70850;SDS011;58475;49.662;9.636;2022-11-20T01:17:22;34.22;;;15.20;;
70850;SDS011;58475;49.662;9.636;2022-11-20T01:19:50;36.58;;;15.80;;
70850;SDS011;58475;49.662;9.636;2022-11-20T01:22:16;34.53;;;13.70;;
70850;SDS011;58475;49.662;9.636;2022-11-20T01:24:42;36.63;;;15.43;;
70850;SDS011;58475;49.662;9.636;2022-11-20T01:27:07;34.45;;;14.88;;
70850;SDS011;58475;49.662;9.636;2022-11-20T01:29:32;33.53;;;15.10;;
70850;SDS011;58475;49.662;9.636;2022-11-20T01:31:58;35.40;;;14.60;;
70850;SDS011;58475;49.662;9.636;2022-11-20T01:34:24;30.80;;;13.88;;
70850;SDS011;58475;49.662;9.636;2022-11-20T01:36:50;31.95;;;14.02;;
70850;SDS011;58475;49.662;9.636;2022-11-20T01:39:21;32.13;;;14.93;;
70850;SDS011;58475;49.662;9.636;2022-11-20T01:44:43;30.75;;;13.40;;
70850;SDS011;58475;49.662;9.636;2022-11-20T01:47:39;34.13;;;14.35;;
70850;SDS011;58475;49.662;9.636;2022-11-20T01:50:09;33.85;;;14.07;;
70850;SDS011;58475;49.662;9.636;2022-11-20T01:52:40;34.13;;;14.38;;
70850;SDS011;58475;49.662;9.636;2022-11-20T01:55:14;33.58;;;15.77;;
70850;SDS011;58475;49.662;9.636;2022-11-20T01:57:47;37.83;;;17.27;;
70850;SDS011;58475;49.662;9.636;2022-11-20T02:00:15;34.58;;;16.13;;
70850;SDS011;58475;49.662;9.636;2022-11-20T02:02:43;33.10;;;15.50;;
70850;SDS011;58475;49.662;9.636;2022-11-20T02:07:52;34.08;;;15.32;;
70850;SDS011;58475;49.662;9.636;2022-11-20T02:10:19;32.22;;;14.35;;
70850;SDS011;58475;49.662;9.636;2022-11-20T02:12:45;37.20;;;15.73;;
70850;SDS011;58475;49.662;9.636;2022-11-20T02:15:29;34.08;;;14.23;;
70850;SDS011;58475;49.662;9.636;2022-11-20T02:17:57;34.08;;;14.70;;
70850;SDS011;58475;49.662;9.636;2022-11-20T02:20:22;32.70;;;14.80;;
70850;SDS011;58475;49.662;9.636;2022-11-20T02:22:50;31.05;;;13.50;;
70850;SDS011;58475;49.662;9.636;2022-11-20T02:25:24;36.28;;;15.82;;
70850;SDS011;58475;49.662;9.636;2022-11-20T02:27:52;35.60;;;15.32;;
70850;SDS011;58475;49.662;9.636;2022-11-20T02:30:18;35.30;;;14.93;;
70850;SDS011;58475;49.662;9.636;2022-11-20T02:32:44;38.92;;;15.57;;
70850;SDS011;58475;49.662;9.636;2022-11-20T02:35:37;32.00;;;14.75;;
70850;SDS011;58475;49.662;9.636;2022-11-20T02:37:56;34.58;;;15.27;;
70850;SDS011;58475;49.662;9.636;2022-11-20T02:40:24;31.33;;;14.10;;
70850;SDS011;58475;49.662;9.636;2022-11-20T02:42:54;28.73;;;13.02;;
70850;SDS011;58475;49.662;9.636;2022-11-20T02:45:20;29.50;;;12.77;;
70850;SDS011;58475;49.662;9.636;2022-11-20T02:47:46;31.10;;;14.13;;
70850;SDS011;58475;49.662;9.636;2022-11-20T02:50:11;34.20;;;15.25;;
70850;SDS011;58475;49.662;9.636;2022-11-20T02:52:37;32.85;;;15.05;;
70850;SDS011;58475;49.662;9.636;2022-11-20T02:55:03;28.20;;;13.07;;
70850;SDS011;58475;49.662;9.636;2022-11-20T02:57:29;32.00;;;13.43;;
70850;SDS011;58475;49.662;9.636;2022-11-20T02:59:54;32.50;;;13.93;;
70850;SDS011;58475;49.662;9.636;2022-11-20T03:02:20;32.33;;;13.52;;
70850;SDS011;58475;49.662;9.636;2022-11-20T03:04:46;33.25;;;13.95;;
70850;SDS011;58475;49.662;9.636;2022-11-20T03:07:11;36.97;;;14.38;;
70850;SDS011;58475;49.662;9.636;2022-11-20T03:09:37;30.30;;;13.38;;
70850;SDS011;58475;49.662;9.636;2022-11-20T03:12:03;34.85;;;14.27;;
70850;SDS011;58475;49.662;9.636;2022-11-20T03:14:28;32.65;;;14.45;;
70850;SDS011;58475;49.662;9.636;2022-11-20T03:16:54;29.50;;;12.85;;
70850;SDS011;58475;49.662;9.636;2022-11-20T03:19:20;33.97;;;13.93;;
70850;SDS011;58475;49.662;9.636;2022-11-20T03:21:46;34.05;;;13.95;;
70850;SDS011;58475;49.662;9.636;2022-11-20T03:24:12;30.88;;;13.23;;
70850;SDS011;58475;49.662;9.636;2022-11-20T03:26:38;33.60;;;14.70;;
70850;SDS011;58475;49.662;9.636;2022-11-20T03:29:04;29.30;;;12.48;;
70850;SDS011;58475;49.662;9.636;2022-11-20T03:31:32;28.98;;;12.95;;
70850;SDS011;58475;49.662;9.636;2022-11-20T03:33:59;33.85;;;13.80;;
70850;SDS011;58475;49.662;9.636;2022-11-20T03:36:25;35.65;;;14.57;;
70850;SDS011;58475;49.662;9.636;2022-11-20T03:38:52;32.88;;;13.30;;
70850;SDS011;58475;49.662;9.636;2022-11-20T03:41:20;30.70;;;13.57;;
70850;SDS011;58475;49.662;9.636;2022-11-20T03:43:48;32.30;;;13.43;;
70850;SDS011;58475;49.662;9.636;2022-11-20T03:46:14;34.55;;;14.20;;
70850;SDS011;58475;49.662;9.636;2022-11-20T03:48:40;33.50;;;13.43;;
70850;SDS011;58475;49.662;9.636;2022-11-20T03:51:13;31.77;;;12.48;;
70850;SDS011;58475;49.662;9.636;2022-11-20T03:53:42;34.05;;;13.95;;
70850;SDS011;58475;49.662;9.636;2022-11-20T03:56:09;34.60;;;13.90;;
70850;SDS011;58475;49.662;9.636;2022-11-20T03:58:36;33.53;;;14.65;;
70850;SDS011;58475;49.662;9.636;2022-11-20T04:01:10;28.13;;;13.52;;
70850;SDS011;58475;49.662;9.636;2022-11-20T04:03:38;32.38;;;14.10;;
70850;SDS011;58475;49.662;9.636;2022-11-20T04:06:05;30.63;;;13.02;;
70850;SDS011;58475;49.662;9.636;2022-11-20T04:08:33;31.27;;;13.85;;
70850;SDS011;58475;49.662;9.636;2022-11-20T04:13:33;29.77;;;13.82;;
70850;SDS011;58475;49.662;9.636;2022-11-20T04:15:59;33.95;;;14.70;;
70850;SDS011;58475;49.662;9.636;2022-11-20T04:18:24;31.15;;;12.95;;
70850;SDS011;58475;49.662;9.636;2022-11-20T04:20:50;31.27;;;13.85;;
70850;SDS011;58475;49.662;9.636;2022-11-20T04:23:15;31.55;;;13.32;;
70850;SDS011;58475;49.662;9.636;2022-11-20T04:25:41;30.95;;;13.40;;
70850;SDS011;58475;49.662;9.636;2022-11-20T04:28:06;32.28;;;14.57;;
70850;SDS011;58475;49.662;9.636;2022-11-20T04:30:32;29.90;;;12.73;;
70850;SDS011;58475;49.662;9.636;2022-11-20T04:32:57;31.92;;;12.45;;
70850;SDS011;58475;49.662;9.636;2022-11-20T04:35:23;32.20;;;13.95;;
70850;SDS011;58475;49.662;9.636;2022-11-20T04:37:50;28.70;;;12.77;;
70850;SDS011;58475;49.662;9.636;2022-11-20T04:40:16;34.67;;;14.10;;
70850;SDS011;58475;49.662;9.636;2022-11-20T04:42:42;35.60;;;13.95;;
70850;SDS011;58475;49.662;9.636;2022-11-20T04:45:07;28.13;;;12.35;;
70850;SDS011;58475;49.662;9.636;2022-11-20T04:47:33;30.58;;;13.52;;
70850;SDS011;58475;49.662;9.636;2022-11-20T04:49:59;28.13;;;12.00;;
70850;SDS011;58475;49.662;9.636;2022-11-20T04:52:24;28.48;;;12.48;;
70850;SDS011;58475;49.662;9.636;2022-11-20T04:54:49;27.38;;;11.70;;
70850;SDS011;58475;49.662;9.636;2022-11-20T04:57:20;24.90;;;11.98;;
70850;SDS011;58475;49.662;9.636;2022-11-20T04:59:46;28.05;;;12.77;;
70850;SDS011;58475;49.662;9.636;2022-11-20T05:02:12;27.08;;;12.30;;
70850;SDS011;58475;49.662;9.636;2022-11-20T05:04:37;27.65;;;12.63;;
70850;SDS011;58475;49.662;9.636;2022-11-20T05:07:03;26.60;;;11.65;;
70850;SDS011;58475;49.662;9.636;2022-11-20T05:09:29;30.50;;;12.68;;
70850;SDS011;58475;49.662;9.636;2022-11-20T05:11:55;30.33;;;12.98;;
70850;SDS011;58475;49.662;9.636;2022-11-20T05:14:20;27.98;;;12.10;;
70850;SDS011;58475;49.662;9.636;2022-11-20T05:16:46;31.85;;;13.05;;
70850;SDS011;58475;49.662;9.636;2022-11-20T05:19:11;28.98;;;11.93;;
70850;SDS011;58475;49.662;9.636;2022-11-20T05:21:37;29.17;;;12.57;;
70850;SDS011;58475;49.662;9.636;2022-11-20T05:24:02;27.85;;;12.52;;
70850;SDS011;58475;49.662;9.636;2022-11-20T05:26:28;28.80;;;12.55;;
70850;SDS011;58475;49.662;9.636;2022-11-20T05:28:53;31.63;;;13.15;;
70850;SDS011;58475;49.662;9.636;2022-11-20T05:31:20;30.73;;;13.50;;
70850;SDS011;58475;49.662;9.636;2022-11-20T05:33:47;33.13;;;13.80;;
70850;SDS011;58475;49.662;9.636;2022-11-20T05:36:13;32.97;;;13.50;;
70850;SDS011;58475;49.662;9.636;2022-11-20T05:38:40;32.00;;;14.13;;
70850;SDS011;58475;49.662;9.636;2022-11-20T05:41:13;29.83;;;13.73;;
70850;SDS011;58475;49.662;9.636;2022-11-20T05:43:41;30.20;;;13.55;;
70850;SDS011;58475;49.662;9.636;2022-11-20T05:46:08;29.67;;;13.23;;
70850;SDS011;58475;49.662;9.636;2022-11-20T05:48:35;32.95;;;15.02;;
70850;SDS011;58475;49.662;9.636;2022-11-20T05:51:02;33.25;;;14.88;;
70850;SDS011;58475;49.662;9.636;2022-11-20T05:53:29;34.20;;;16.33;;
70850;SDS011;58475;49.662;9.636;2022-11-20T05:56:02;35.47;;;15.80;;
70850;SDS011;58475;49.662;9.636;2022-11-20T05:58:29;35.03;;;15.43;;
70850;SDS011;58475;49.662;9.636;2022-11-20T06:01:03;41.90;;;20.77;;
70850;SDS011;58475;49.662;9.636;2022-11-20T06:03:29;35.38;;;14.60;;
70850;SDS011;58475;49.662;9.636;2022-11-20T06:05:55;32.30;;;13.20;;
70850;SDS011;58475;49.662;9.636;2022-11-20T06:08:20;28.75;;;12.45;;
70850;SDS011;58475;49.662;9.636;2022-11-20T06:10:46;27.75;;;13.05;;
70850;SDS011;58475;49.662;9.636;2022-11-20T06:13:11;30.15;;;12.77;;
70850;SDS011;58475;49.662;9.636;2022-11-20T06:15:37;27.33;;;12.38;;
70850;SDS011;58475;49.662;9.636;2022-11-20T06:18:02;28.45;;;12.48;;
70850;SDS011;58475;49.662;9.636;2022-11-20T06:20:28;26.67;;;12.32;;
70850;SDS011;58475;49.662;9.636;2022-11-20T06:22:53;28.02;;;12.88;;
70850;SDS011;58475;49.662;9.636;2022-11-20T06:25:18;29.52;;;12.60;;
70850;SDS011;58475;49.662;9.636;2022-11-20T06:27:44;29.17;;;12.98;;
70850;SDS011;58475;49.662;9.636;2022-11-20T06:30:10;30.02;;;13.45;;
70850;SDS011;58475;49.662;9.636;2022-11-20T06:32:36;28.25;;;12.77;;
70850;SDS011;58475;49.662;9.636;2022-11-20T06:35:01;29.38;;;13.02;;
70850;SDS011;58475;49.662;9.636;2022-11-20T06:37:27;35.95;;;16.52;;
70850;SDS011;58475;49.662;9.636;2022-11-20T06:39:52;40.85;;;19.65;;
70850;SDS011;58475;49.662;9.636;2022-11-20T06:42:17;47.92;;;25.40;;
70850;SDS011;58475;49.662;9.636;2022-11-20T06:44:43;34.20;;;16.15;;
70850;SDS011;58475;49.662;9.636;2022-11-20T06:47:09;32.75;;;14.63;;
70850;SDS011;58475;49.662;9.636;2022-11-20T06:49:34;31.90;;;14.95;;
70850;SDS011;58475;49.662;9.636;2022-11-20T06:52:02;27.05;;;12.57;;
70850;SDS011;58475;49.662;9.636;2022-11-20T06:54:28;29.55;;;13.02;;
70850;SDS011;58475;49.662;9.636;2022-11-20T06:56:53;28.50;;;12.60;;
70850;SDS011;58475;49.662;9.636;2022-11-20T06:59:19;30.05;;;11.98;;
70850;SDS011;58475;49.662;9.636;2022-11-20T07:01:45;29.23;;;12.60;;
70850;SDS011;58475;49.662;9.636;2022-11-20T07:04:10;29.10;;;12.32;;
70850;SDS011;58475;49.662;9.636;2022-11-20T07:06:35;30.27;;;13.02;;
70850;SDS011;58475;49.662;9.636;2022-11-20T07:09:01;28.83;;;12.57;;
70850;SDS011;58475;49.662;9.636;2022-11-20T07:11:27;25.98;;;12.43;;
70850;SDS011;58475;49.662;9.636;2022-11-20T07:13:52;29.38;;;13.02;;
70850;SDS011;58475;49.662;9.636;2022-11-20T07:16:18;27.52;;;12.68;;
70850;SDS011;58475;49.662;9.636;2022-11-20T07:18:43;29.73;;;13.52;;
70850;SDS011;58475;49.662;9.636;2022-11-20T07:21:09;33.92;;;15.63;;
70850;SDS011;58475;49.662;9.636;2022-11-20T07:23:35;31.30;;;15.02;;
70850;SDS011;58475;49.662;9.636;2022-11-20T07:26:04;30.65;;;13.15;;
70850;SDS011;58475;49.662;9.636;2022-11-20T07:28:31;30.30;;;13.43;;
70850;SDS011;58475;49.662;9.636;2022-11-20T07:30:57;28.65;;;12.48;;
70850;SDS011;58475;49.662;9.636;2022-11-20T07:33:22;30.85;;;13.80;;
70850;SDS011;58475;49.662;9.636;2022-11-20T07:35:48;31.42;;;14.77;;
70850;SDS011;58475;49.662;9.636;2022-11-20T07:38:13;36.45;;;16.75;;
70850;SDS011;58475;49.662;9.636;2022-11-20T07:40:39;33.90;;;15.20;;
70850;SDS011;58475;49.662;9.636;2022-11-20T07:43:04;34.35;;;14.75;;
70850;SDS011;58475;49.662;9.636;2022-11-20T07:45:30;30.17;;;13.43;;
70850;SDS011;58475;49.662;9.636;2022-11-20T07:47:55;34.88;;;14.13;;
70850;SDS011;58475;49.662;9.636;2022-11-20T07:50:21;35.30;;;13.90;;
70850;SDS011;58475;49.662;9.636;2022-11-20T07:52:46;32.35;;;14.77;;
70850;SDS011;58475;49.662;9.636;2022-11-20T07:55:12;38.10;;;16.83;;
70850;SDS011;58475;49.662;9.636;2022-11-20T07:57:38;31.63;;;14.65;;
70850;SDS011;58475;49.662;9.636;2022-11-20T08:00:04;33.25;;;13.52;;
70850;SDS011;58475;49.662;9.636;2022-11-20T08:02:37;39.83;;;17.25;;
70850;SDS011;58475;49.662;9.636;2022-11-20T08:05:05;35.38;;;14.85;;
70850;SDS011;58475;49.662;9.636;2022-11-20T08:07:38;30.15;;;13.15;;
70850;SDS011;58475;49.662;9.636;2022-11-20T08:10:06;33.35;;;13.63;;
70850;SDS011;58475;49.662;9.636;2022-11-20T08:12:33;38.30;;;16.67;;
70850;SDS011;58475;49.662;9.636;2022-11-20T08:15:17;38.28;;;14.75;;
70850;SDS011;58475;49.662;9.636;2022-11-20T08:17:42;34.17;;;13.85;;
70850;SDS011;58475;49.662;9.636;2022-11-20T08:20:08;41.17;;;17.00;;
70850;SDS011;58475;49.662;9.636;2022-11-20T08:22:34;39.17;;;17.70;;
70850;SDS011;58475;49.662;9.636;2022-11-20T08:24:59;41.22;;;15.68;;
70850;SDS011;58475;49.662;9.636;2022-11-20T08:27:26;38.03;;;14.30;;
70850;SDS011;58475;49.662;9.636;2022-11-20T08:29:52;33.03;;;12.88;;
70850;SDS011;58475;49.662;9.636;2022-11-20T08:32:18;26.80;;;11.43;;
70850;SDS011;58475;49.662;9.636;2022-11-20T08:34:43;40.15;;;19.17;;
70850;SDS011;58475;49.662;9.636;2022-11-20T08:37:09;30.02;;;11.80;;
70850;SDS011;58475;49.662;9.636;2022-11-20T08:39:34;37.95;;;14.63;;
70850;SDS011;58475;49.662;9.636;2022-11-20T08:42:00;28.38;;;13.57;;
70850;SDS011;58475;49.662;9.636;2022-11-20T08:44:26;31.35;;;13.10;;
70850;SDS011;58475;49.662;9.636;2022-11-20T08:46:51;30.83;;;12.52;;
70850;SDS011;58475;49.662;9.636;2022-11-20T08:49:17;28.45;;;12.15;;
70850;SDS011;58475;49.662;9.636;2022-11-20T08:51:44;25.73;;;10.90;;
70850;SDS011;58475;49.662;9.636;2022-11-20T08:54:13;31.10;;;13.38;;
70850;SDS011;58475;49.662;9.636;2022-11-20T08:56:42;27.45;;;11.07;;
70850;SDS011;58475;49.662;9.636;2022-11-20T08:59:11;23.63;;;11.60;;
70850;SDS011;58475;49.662;9.636;2022-11-20T09:01:42;21.95;;;10.35;;
70850;SDS011;58475;49.662;9.636;2022-11-20T09:04:16;25.10;;;10.13;;
70850;SDS011;58475;49.662;9.636;2022-11-20T09:06:53;25.45;;;10.77;;
70850;SDS011;58475;49.662;9.636;2022-11-20T09:09:19;22.95;;;10.18;;
70850;SDS011;58475;49.662;9.636;2022-11-20T09:11:50;23.40;;;10.18;;
70850;SDS011;58475;49.662;9.636;2022-11-20T09:14:16;22.77;;;10.23;;
70850;SDS011;58475;49.662;9.636;2022-11-20T09:16:44;27.27;;;11.68;;
70850;SDS011;58475;49.662;9.636;2022-11-20T09:19:15;22.92;;;11.25;;
70850;SDS011;58475;49.662;9.636;2022-11-20T09:21:47;24.02;;;10.60;;
70850;SDS011;58475;49.662;9.636;2022-11-20T09:24:15;19.70;;;8.38;;
70850;SDS011;58475;49.662;9.636;2022-11-20T09:26:44;17.10;;;8.45;;
70850;SDS011;58475;49.662;9.636;2022-11-20T09:29:16;17.02;;;7.80;;
70850;SDS011;58475;49.662;9.636;2022-11-20T09:31:42;16.58;;;7.43;;
70850;SDS011;58475;49.662;9.636;2022-11-20T09:34:19;17.08;;;7.78;;
70850;SDS011;58475;49.662;9.636;2022-11-20T09:36:47;15.10;;;7.38;;
70850;SDS011;58475;49.662;9.636;2022-11-20T09:39:38;14.52;;;6.75;;
70850;SDS011;58475;49.662;9.636;2022-11-20T09:55:22;13.07;;;6.90;;
70850;SDS011;58475;49.662;9.636;2022-11-20T09:57:49;12.85;;;6.75;;
70850;SDS011;58475;49.662;9.636;2022-11-20T10:00:16;15.20;;;8.07;;
70850;SDS011;58475;49.662;9.636;2022-11-20T10:05:33;16.40;;;9.52;;
70850;SDS011;58475;49.662;9.636;2022-11-20T10:08:19;15.55;;;7.15;;
70850;SDS011;58475;49.662;9.636;2022-11-20T10:10:50;12.30;;;6.80;;
70850;SDS011;58475;49.662;9.636;2022-11-20T10:16:14;13.43;;;7.18;;
70850;SDS011;58475;49.662;9.636;2022-11-20T10:24:43;14.20;;;6.40;;
70850;SDS011;58475;49.662;9.636;2022-11-20T10:30:14;15.27;;;7.40;;
70850;SDS011;58475;49.662;9.636;2022-11-20T10:32:46;16.60;;;8.63;;
70850;SDS011;58475;49.662;9.636;2022-11-20T10:37:41;14.30;;;7.68;;
70850;SDS011;58475;49.662;9.636;2022-11-20T10:40:23;13.50;;;7.20;;
70850;SDS011;58475;49.662;9.636;2022-11-20T10:43:13;13.63;;;7.80;;
70850;SDS011;58475;49.662;9.636;2022-11-20T10:48:30;11.88;;;6.18;;
70850;SDS011;58475;49.662;9.636;2022-11-20T10:54:12;13.07;;;6.88;;
70850;SDS011;58475;49.662;9.636;2022-11-20T10:56:52;12.48;;;6.13;;
70850;SDS011;58475;49.662;9.636;2022-11-20T11:02:16;11.95;;;5.43;;
70850;SDS011;58475;49.662;9.636;2022-11-20T11:04:44;12.30;;;5.93;;
70850;SDS011;58475;49.662;9.636;2022-11-20T11:07:19;12.13;;;6.07;;
70850;SDS011;58475;49.662;9.636;2022-11-20T11:09:55;14.20;;;7.00;;
70850;SDS011;58475;49.662;9.636;2022-11-20T11:12:22;10.50;;;5.93;;
70850;SDS011;58475;49.662;9.636;2022-11-20T11:14:54;10.90;;;5.65;;
70850;SDS011;58475;49.662;9.636;2022-11-20T11:22:28;15.90;;;8.15;;
70850;SDS011;58475;49.662;9.636;2022-11-20T11:24:56;17.10;;;9.52;;
70850;SDS011;58475;49.662;9.636;2022-11-20T11:27:21;21.90;;;11.88;;
70850;SDS011;58475;49.662;9.636;2022-11-20T11:29:49;18.23;;;10.52;;
70850;SDS011;58475;49.662;9.636;2022-11-20T11:32:26;19.25;;;10.45;;
70850;SDS011;58475;49.662;9.636;2022-11-20T11:34:58;19.48;;;9.80;;
70850;SDS011;58475;49.662;9.636;2022-11-20T11:37:27;20.50;;;11.85;;
70850;SDS011;58475;49.662;9.636;2022-11-20T11:39:58;22.55;;;12.27;;
70850;SDS011;58475;49.662;9.636;2022-11-20T11:42:24;21.40;;;11.88;;
70850;SDS011;58475;49.662;9.636;2022-11-20T11:44:57;20.80;;;11.55;;
70850;SDS011;58475;49.662;9.636;2022-11-20T11:47:31;21.27;;;11.63;;
70850;SDS011;58475;49.662;9.636;2022-11-20T11:52:43;16.90;;;8.98;;
70850;SDS011;58475;49.662;9.636;2022-11-20T12:00:49;15.93;;;8.50;;
70850;SDS011;58475;49.662;9.636;2022-11-20T12:03:34;14.98;;;8.82;;
70850;SDS011;58475;49.662;9.636;2022-11-20T12:06:04;14.05;;;8.07;;
70850;SDS011;58475;49.662;9.636;2022-11-20T12:11:24;16.92;;;9.93;;
70850;SDS011;58475;49.662;9.636;2022-11-20T12:14:02;16.08;;;9.13;;
70850;SDS011;58475;49.662;9.636;2022-11-20T12:16:38;14.27;;;7.83;;
70850;SDS011;58475;49.662;9.636;2022-11-20T12:19:09;13.48;;;7.72;;
70850;SDS011;58475;49.662;9.636;2022-11-20T12:30:13;11.10;;;6.13;;
70850;SDS011;58475;49.662;9.636;2022-11-20T12:41:14;13.85;;;6.70;;
70850;SDS011;58475;49.662;9.636;2022-11-20T12:44:19;11.88;;;6.38;;
70850;SDS011;58475;49.662;9.636;2022-11-20T12:47:43;12.13;;;6.90;;
70850;SDS011;58475;49.662;9.636;2022-11-20T12:50:31;12.77;;;7.00;;
70850;SDS011;58475;49.662;9.636;2022-11-20T12:53:55;15.57;;;8.68;;
70850;SDS011;58475;49.662;9.636;2022-11-20T13:06:52;17.17;;;9.82;;
70850;SDS011;58475;49.662;9.636;2022-11-20T13:09:19;16.80;;;9.15;;
70850;SDS011;58475;49.662;9.636;2022-11-20T13:17:22;18.95;;;10.77;;
70850;SDS011;58475;49.662;9.636;2022-11-20T13:19:56;19.20;;;11.77;;
70850;SDS011;58475;49.662;9.636;2022-11-20T13:22:28;17.55;;;9.80;;
70850;SDS011;58475;49.662;9.636;2022-11-20T13:25:10;16.73;;;9.80;;
70850;SDS011;58475;49.662;9.636;2022-11-20T13:27:49;18.83;;;11.23;;
70850;SDS011;58475;49.662;9.636;2022-11-20T13:30:20;17.33;;;10.88;;
70850;SDS011;58475;49.662;9.636;2022-11-20T13:32:57;17.20;;;9.93;;
70850;SDS011;58475;49.662;9.636;2022-11-20T13:35:35;17.67;;;10.02;;
70850;SDS011;58475;49.662;9.636;2022-11-20T13:40:39;17.85;;;10.85;;
70850;SDS011;58475;49.662;9.636;2022-11-20T13:43:46;18.90;;;10.93;;
70850;SDS011;58475;49.662;9.636;2022-11-20T13:46:13;19.63;;;10.52;;
70850;SDS011;58475;49.662;9.636;2022-11-20T13:48:43;20.48;;;11.07;;
70850;SDS011;58475;49.662;9.636;2022-11-20T13:51:23;19.83;;;11.55;;
70850;SDS011;58475;49.662;9.636;2022-11-20T14:00:12;16.40;;;10.23;;
70850;SDS011;58475;49.662;9.636;2022-11-20T14:02:39;18.20;;;10.32;;
70850;SDS011;58475;49.662;9.636;2022-11-20T14:05:05;23.77;;;12.13;;
70850;SDS011;58475;49.662;9.636;2022-11-20T14:07:39;19.63;;;10.73;;
70850;SDS011;58475;49.662;9.636;2022-11-20T14:10:24;17.13;;;10.27;;
70850;SDS011;58475;49.662;9.636;2022-11-20T14:12:54;21.83;;;11.10;;
70850;SDS011;58475;49.662;9.636;2022-11-20T14:15:25;23.52;;;13.07;;
70850;SDS011;58475;49.662;9.636;2022-11-20T14:17:52;22.38;;;11.38;;
70850;SDS011;58475;49.662;9.636;2022-11-20T14:20:28;20.08;;;11.70;;
70850;SDS011;58475;49.662;9.636;2022-11-20T14:22:56;22.83;;;13.27;;
70850;SDS011;58475;49.662;9.636;2022-11-20T14:25:22;17.60;;;11.15;;
70850;SDS011;58475;49.662;9.636;2022-11-20T14:27:57;17.45;;;10.80;;
70850;SDS011;58475;49.662;9.636;2022-11-20T14:30:25;17.75;;;10.32;;
70850;SDS011;58475;49.662;9.636;2022-11-20T14:33:09;15.93;;;9.07;;
70850;SDS011;58475;49.662;9.636;2022-11-20T14:35:38;19.02;;;10.45;;
70850;SDS011;58475;49.662;9.636;2022-11-20T14:38:10;17.58;;;9.75;;
70850;SDS011;58475;49.662;9.636;2022-11-20T14:40:38;18.67;;;10.40;;
70850;SDS011;58475;49.662;9.636;2022-11-20T14:43:26;19.67;;;10.10;;
70850;SDS011;58475;49.662;9.636;2022-11-20T14:48:33;19.27;;;10.32;;
70850;SDS011;58475;49.662;9.636;2022-11-20T14:53:55;19.88;;;10.77;;
70850;SDS011;58475;49.662;9.636;2022-11-20T14:56:22;18.13;;;10.88;;
70850;SDS011;58475;49.662;9.636;2022-11-20T14:58:55;20.27;;;10.68;;
70850;SDS011;58475;49.662;9.636;2022-11-20T15:01:29;16.13;;;9.43;;
70850;SDS011;58475;49.662;9.636;2022-11-20T15:04:00;15.95;;;8.63;;
70850;SDS011;58475;49.662;9.636;2022-11-20T15:06:34;15.45;;;8.63;;
70850;SDS011;58475;49.662;9.636;2022-11-20T15:09:02;13.98;;;7.88;;
70850;SDS011;58475;49.662;9.636;2022-11-20T15:11:32;15.13;;;8.18;;
70850;SDS011;58475;49.662;9.636;2022-11-20T15:14:04;14.00;;;8.18;;
70850;SDS011;58475;49.662;9.636;2022-11-20T15:16:31;16.08;;;8.43;;
70850;SDS011;58475;49.662;9.636;2022-11-20T15:18:57;13.95;;;8.50;;
70850;SDS011;58475;49.662;9.636;2022-11-20T15:21:23;16.70;;;8.88;;
70850;SDS011;58475;49.662;9.636;2022-11-20T15:23:49;19.63;;;11.00;;
70850;SDS011;58475;49.662;9.636;2022-11-20T15:26:20;16.75;;;9.75;;
70850;SDS011;58475;49.662;9.636;2022-11-20T15:28:51;99.97;;;47.25;;
70850;SDS011;58475;49.662;9.636;2022-11-20T15:31:19;80.78;;;40.13;;
70850;SDS011;58475;49.662;9.636;2022-11-20T15:33:46;21.92;;;13.13;;
70850;SDS011;58475;49.662;9.636;2022-11-20T15:36:12;19.92;;;11.73;;
70850;SDS011;58475;49.662;9.636;2022-11-20T15:38:38;23.48;;;13.27;;
70850;SDS011;58475;49.662;9.636;2022-11-20T15:41:03;18.08;;;10.50;;
70850;SDS011;58475;49.662;9.636;2022-11-20T15:43:30;19.60;;;11.85;;
70850;SDS011;58475;49.662;9.636;2022-11-20T15:45:56;17.83;;;11.40;;
70850;SDS011;58475;49.662;9.636;2022-11-20T15:48:36;19.65;;;10.98;;
70850;SDS011;58475;49.662;9.636;2022-11-20T15:53:37;17.48;;;9.30;;
70850;SDS011;58475;49.662;9.636;2022-11-20T15:56:04;24.13;;;12.90;;
70850;SDS011;58475;49.662;9.636;2022-11-20T15:58:29;25.95;;;14.35;;
70850;SDS011;58475;49.662;9.636;2022-11-20T16:00:55;29.70;;;16.42;;
70850;SDS011;58475;49.662;9.636;2022-11-20T16:03:21;33.85;;;18.05;;
70850;SDS011;58475;49.662;9.636;2022-11-20T16:05:47;36.90;;;20.27;;
70850;SDS011;58475;49.662;9.636;2022-11-20T16:08:12;37.65;;;21.13;;
70850;SDS011;58475;49.662;9.636;2022-11-20T16:10:38;38.83;;;19.35;;
70850;SDS011;58475;49.662;9.636;2022-11-20T16:13:05;30.52;;;16.83;;
70850;SDS011;58475;49.662;9.636;2022-11-20T16:15:56;31.13;;;16.15;;
70850;SDS011;58475;49.662;9.636;2022-11-20T16:18:23;28.60;;;16.02;;
70850;SDS011;58475;49.662;9.636;2022-11-20T16:20:51;23.85;;;13.57;;
70850;SDS011;58475;49.662;9.636;2022-11-20T16:23:18;30.27;;;16.15;;
70850;SDS011;58475;49.662;9.636;2022-11-20T16:25:44;26.63;;;14.82;;
70850;SDS011;58475;49.662;9.636;2022-11-20T16:28:10;26.58;;;15.20;;